Galahad, Canada
Current Conditions -  °F | °C
As of 11:00 PM on Tuesday 21 Oct 2014 (Local Time) from CYQF Reporting Station
Clear Clear  
Wind Chill: 31°   Ceiling: Unl
Heat Index: 36°   Visibility: 15mi
Dew Point: 34°   Wind: 6mph
Humidity: 93%   Direction: 190°S
Pressure: 29.72"   Gusts: NA
Location:  52.52°N, 111.92°W
Report Text: CYQF 220500Z 19005KT 15SM SKC 02/01 A2972 RMK SLP093
Loading
Personal Weather Stations






























Interactive Weather Map
Tropical Storm Tracking
New forecast layout! Learn more

10-Day Weather Forecast

Advertisements
Track Severe Weather on mobile